sensor_id;sensor_type;location;lat;lon;timestamp;temperature;humidity
5364;DHT22;2705;41.410;2.160;2023-05-03T00:00:17;18.00;99.90
5364;DHT22;2705;41.410;2.160;2023-05-03T00:02:47;18.00;99.90
5364;DHT22;2705;41.410;2.160;2023-05-03T00:05:18;17.80;99.90
5364;DHT22;2705;41.410;2.160;2023-05-03T00:07:47;17.90;99.90
5364;DHT22;2705;41.410;2.160;2023-05-03T00:10:16;17.80;99.90
5364;DHT22;2705;41.410;2.160;2023-05-03T00:12:47;17.70;99.90
5364;DHT22;2705;41.410;2.160;2023-05-03T00:15:16;17.80;99.90
5364;DHT22;2705;41.410;2.160;2023-05-03T00:17:46;17.80;99.90
5364;DHT22;2705;41.410;2.160;2023-05-03T00:20:15;17.80;99.90
5364;DHT22;2705;41.410;2.160;2023-05-03T00:22:45;18.00;99.90
5364;DHT22;2705;41.410;2.160;2023-05-03T00:25:15;18.00;99.90
5364;DHT22;2705;41.410;2.160;2023-05-03T00:27:44;17.80;99.90
5364;DHT22;2705;41.410;2.160;2023-05-03T00:30:15;17.80;99.90
5364;DHT22;2705;41.410;2.160;2023-05-03T00:32:45;17.90;99.90
5364;DHT22;2705;41.410;2.160;2023-05-03T00:35:15;18.10;99.90
5364;DHT22;2705;41.410;2.160;2023-05-03T00:37:44;17.90;99.90
5364;DHT22;2705;41.410;2.160;2023-05-03T00:40:13;17.80;99.90
5364;DHT22;2705;41.410;2.160;2023-05-03T00:42:45;17.90;99.90
5364;DHT22;2705;41.410;2.160;2023-05-03T00:45:16;18.20;99.90
5364;DHT22;2705;41.410;2.160;2023-05-03T00:47:45;18.00;99.90
5364;DHT22;2705;41.410;2.160;2023-05-03T00:50:14;17.70;99.90
5364;DHT22;2705;41.410;2.160;2023-05-03T00:52:44;17.50;99.90
5364;DHT22;2705;41.410;2.160;2023-05-03T00:55:14;17.40;99.90
5364;DHT22;2705;41.410;2.160;2023-05-03T00:57:44;17.30;99.90
5364;DHT22;2705;41.410;2.160;2023-05-03T01:00:15;17.20;99.90
5364;DHT22;2705;41.410;2.160;2023-05-03T01:02:44;17.20;99.90
5364;DHT22;2705;41.410;2.160;2023-05-03T01:05:14;17.40;99.90
5364;DHT22;2705;41.410;2.160;2023-05-03T01:08:02;17.40;99.90
5364;DHT22;2705;41.410;2.160;2023-05-03T01:10:47;17.30;99.90
5364;DHT22;2705;41.410;2.160;2023-05-03T01:13:23;17.30;99.90
5364;DHT22;2705;41.410;2.160;2023-05-03T01:16:01;17.30;99.90
5364;DHT22;2705;41.410;2.160;2023-05-03T01:18:37;17.30;99.90
5364;DHT22;2705;41.410;2.160;2023-05-03T01:21:09;17.30;99.90
5364;DHT22;2705;41.410;2.160;2023-05-03T01:23:42;17.30;99.90
5364;DHT22;2705;41.410;2.160;2023-05-03T01:26:18;17.30;99.90
5364;DHT22;2705;41.410;2.160;2023-05-03T01:28:49;17.30;99.90
5364;DHT22;2705;41.410;2.160;2023-05-03T01:31:22;17.30;99.90
5364;DHT22;2705;41.410;2.160;2023-05-03T01:34:04;17.40;99.90
5364;DHT22;2705;41.410;2.160;2023-05-03T01:36:43;17.50;99.90
5364;DHT22;2705;41.410;2.160;2023-05-03T01:39:17;17.30;99.90
5364;DHT22;2705;41.410;2.160;2023-05-03T01:41:49;17.10;99.90
5364;DHT22;2705;41.410;2.160;2023-05-03T01:44:19;17.00;99.90
5364;DHT22;2705;41.410;2.160;2023-05-03T01:46:49;16.90;99.90
5364;DHT22;2705;41.410;2.160;2023-05-03T01:49:18;16.90;99.90
5364;DHT22;2705;41.410;2.160;2023-05-03T01:51:47;17.00;99.90
5364;DHT22;2705;41.410;2.160;2023-05-03T01:54:17;17.40;99.90
5364;DHT22;2705;41.410;2.160;2023-05-03T01:56:47;17.50;99.90
5364;DHT22;2705;41.410;2.160;2023-05-03T01:59:16;17.50;99.90
5364;DHT22;2705;41.410;2.160;2023-05-03T02:01:45;17.60;99.90
5364;DHT22;2705;41.410;2.160;2023-05-03T02:04:14;17.60;99.90
5364;DHT22;2705;41.410;2.160;2023-05-03T02:06:43;17.30;99.90
5364;DHT22;2705;41.410;2.160;2023-05-03T02:09:12;17.00;99.90
5364;DHT22;2705;41.410;2.160;2023-05-03T02:11:41;16.80;99.90
5364;DHT22;2705;41.410;2.160;2023-05-03T02:14:12;16.80;99.90
5364;DHT22;2705;41.410;2.160;2023-05-03T02:16:41;16.80;99.90
5364;DHT22;2705;41.410;2.160;2023-05-03T02:19:11;16.80;99.90
5364;DHT22;2705;41.410;2.160;2023-05-03T02:21:39;17.10;99.90
5364;DHT22;2705;41.410;2.160;2023-05-03T02:24:08;17.40;99.90
5364;DHT22;2705;41.410;2.160;2023-05-03T02:26:37;17.50;99.90
5364;DHT22;2705;41.410;2.160;2023-05-03T02:29:09;17.40;99.90
5364;DHT22;2705;41.410;2.160;2023-05-03T02:31:40;17.40;99.90
5364;DHT22;2705;41.410;2.160;2023-05-03T02:34:09;17.60;99.90
5364;DHT22;2705;41.410;2.160;2023-05-03T02:36:38;17.60;99.90
5364;DHT22;2705;41.410;2.160;2023-05-03T02:39:08;17.60;99.90
5364;DHT22;2705;41.410;2.160;2023-05-03T02:41:37;17.50;99.90
5364;DHT22;2705;41.410;2.160;2023-05-03T02:44:06;17.50;99.90
5364;DHT22;2705;41.410;2.160;2023-05-03T02:46:35;17.40;99.90
5364;DHT22;2705;41.410;2.160;2023-05-03T02:49:06;17.20;99.90
5364;DHT22;2705;41.410;2.160;2023-05-03T02:51:35;17.00;99.90
5364;DHT22;2705;41.410;2.160;2023-05-03T02:54:04;16.90;99.90
5364;DHT22;2705;41.410;2.160;2023-05-03T02:56:34;16.90;99.90
5364;DHT22;2705;41.410;2.160;2023-05-03T02:59:03;16.90;99.90
5364;DHT22;2705;41.410;2.160;2023-05-03T03:01:32;16.90;99.90
5364;DHT22;2705;41.410;2.160;2023-05-03T03:04:02;17.00;99.90
5364;DHT22;2705;41.410;2.160;2023-05-03T03:06:33;16.90;99.90
5364;DHT22;2705;41.410;2.160;2023-05-03T03:09:02;17.00;99.90
5364;DHT22;2705;41.410;2.160;2023-05-03T03:11:33;16.90;99.90
5364;DHT22;2705;41.410;2.160;2023-05-03T03:14:03;16.90;99.90
5364;DHT22;2705;41.410;2.160;2023-05-03T03:16:31;16.90;99.90
5364;DHT22;2705;41.410;2.160;2023-05-03T03:19:01;16.80;99.90
5364;DHT22;2705;41.410;2.160;2023-05-03T03:21:31;16.80;99.90
5364;DHT22;2705;41.410;2.160;2023-05-03T03:24:02;16.70;99.90
5364;DHT22;2705;41.410;2.160;2023-05-03T03:26:31;16.70;99.90
5364;DHT22;2705;41.410;2.160;2023-05-03T03:29:00;16.70;99.90
5364;DHT22;2705;41.410;2.160;2023-05-03T03:31:30;16.70;99.90
5364;DHT22;2705;41.410;2.160;2023-05-03T03:33:59;16.70;99.90
5364;DHT22;2705;41.410;2.160;2023-05-03T03:36:31;16.70;99.90
5364;DHT22;2705;41.410;2.160;2023-05-03T03:39:01;16.80;99.90
5364;DHT22;2705;41.410;2.160;2023-05-03T03:41:34;16.70;99.90
5364;DHT22;2705;41.410;2.160;2023-05-03T03:44:04;16.70;99.90
5364;DHT22;2705;41.410;2.160;2023-05-03T03:46:33;16.70;99.90
5364;DHT22;2705;41.410;2.160;2023-05-03T03:49:02;16.70;99.90
5364;DHT22;2705;41.410;2.160;2023-05-03T03:51:33;16.80;99.90
5364;DHT22;2705;41.410;2.160;2023-05-03T03:54:02;16.80;99.90
5364;DHT22;2705;41.410;2.160;2023-05-03T03:56:35;16.80;99.90
5364;DHT22;2705;41.410;2.160;2023-05-03T03:59:05;16.80;99.90
5364;DHT22;2705;41.410;2.160;2023-05-03T04:01:36;16.80;99.90
5364;DHT22;2705;41.410;2.160;2023-05-03T04:04:06;16.80;99.90
5364;DHT22;2705;41.410;2.160;2023-05-03T04:06:37;16.80;99.90
5364;DHT22;2705;41.410;2.160;2023-05-03T04:09:11;16.80;99.90
5364;DHT22;2705;41.410;2.160;2023-05-03T04:11:40;16.80;99.90
5364;DHT22;2705;41.410;2.160;2023-05-03T04:14:09;16.90;99.90
5364;DHT22;2705;41.410;2.160;2023-05-03T04:16:40;16.90;99.90
5364;DHT22;2705;41.410;2.160;2023-05-03T04:19:10;16.80;99.90
5364;DHT22;2705;41.410;2.160;2023-05-03T04:21:42;16.80;99.90
5364;DHT22;2705;41.410;2.160;2023-05-03T04:24:16;16.80;99.90
5364;DHT22;2705;41.410;2.160;2023-05-03T04:26:45;16.90;99.90
5364;DHT22;2705;41.410;2.160;2023-05-03T04:29:20;16.90;99.90
5364;DHT22;2705;41.410;2.160;2023-05-03T04:31:50;16.80;99.90
5364;DHT22;2705;41.410;2.160;2023-05-03T04:34:19;16.70;99.90
5364;DHT22;2705;41.410;2.160;2023-05-03T04:36:53;16.70;99.90
5364;DHT22;2705;41.410;2.160;2023-05-03T04:39:23;16.70;99.90
5364;DHT22;2705;41.410;2.160;2023-05-03T04:41:52;16.70;99.90
5364;DHT22;2705;41.410;2.160;2023-05-03T04:44:22;16.60;99.90
5364;DHT22;2705;41.410;2.160;2023-05-03T04:46:52;16.60;99.90
5364;DHT22;2705;41.410;2.160;2023-05-03T04:49:21;16.60;99.90
5364;DHT22;2705;41.410;2.160;2023-05-03T04:51:50;16.70;99.90
5364;DHT22;2705;41.410;2.160;2023-05-03T04:54:24;16.70;99.90
5364;DHT22;2705;41.410;2.160;2023-05-03T04:56:54;16.70;99.90
5364;DHT22;2705;41.410;2.160;2023-05-03T04:59:24;16.70;99.90
5364;DHT22;2705;41.410;2.160;2023-05-03T05:01:53;16.60;99.90
5364;DHT22;2705;41.410;2.160;2023-05-03T05:04:23;16.60;99.90
5364;DHT22;2705;41.410;2.160;2023-05-03T05:06:53;16.70;99.90
5364;DHT22;2705;41.410;2.160;2023-05-03T05:09:28;16.70;99.90
5364;DHT22;2705;41.410;2.160;2023-05-03T05:12:01;16.60;99.90
5364;DHT22;2705;41.410;2.160;2023-05-03T05:14:35;16.70;99.90
5364;DHT22;2705;41.410;2.160;2023-05-03T05:17:07;16.70;99.90
5364;DHT22;2705;41.410;2.160;2023-05-03T05:19:36;16.80;99.90
5364;DHT22;2705;41.410;2.160;2023-05-03T05:22:05;16.80;99.90
5364;DHT22;2705;41.410;2.160;2023-05-03T05:24:43;16.90;99.90
5364;DHT22;2705;41.410;2.160;2023-05-03T05:27:13;16.90;99.90
5364;DHT22;2705;41.410;2.160;2023-05-03T05:29:43;16.90;99.90
5364;DHT22;2705;41.410;2.160;2023-05-03T05:32:13;16.90;99.90
5364;DHT22;2705;41.410;2.160;2023-05-03T05:34:43;16.90;99.90
5364;DHT22;2705;41.410;2.160;2023-05-03T05:37:20;17.00;99.90
5364;DHT22;2705;41.410;2.160;2023-05-03T05:39:51;17.00;99.90
5364;DHT22;2705;41.410;2.160;2023-05-03T05:42:24;17.10;99.90
5364;DHT22;2705;41.410;2.160;2023-05-03T05:44:53;17.10;99.90
5364;DHT22;2705;41.410;2.160;2023-05-03T05:47:24;17.10;99.90
5364;DHT22;2705;41.410;2.160;2023-05-03T05:49:56;17.10;99.90
5364;DHT22;2705;41.410;2.160;2023-05-03T05:52:26;17.10;99.90
5364;DHT22;2705;41.410;2.160;2023-05-03T05:54:56;17.20;99.90
5364;DHT22;2705;41.410;2.160;2023-05-03T05:57:26;17.30;99.90
5364;DHT22;2705;41.410;2.160;2023-05-03T05:59:55;17.30;99.90
5364;DHT22;2705;41.410;2.160;2023-05-03T06:02:25;17.30;99.90
5364;DHT22;2705;41.410;2.160;2023-05-03T06:04:55;17.40;99.90
5364;DHT22;2705;41.410;2.160;2023-05-03T06:07:24;17.30;99.90
5364;DHT22;2705;41.410;2.160;2023-05-03T06:09:53;17.40;99.90
5364;DHT22;2705;41.410;2.160;2023-05-03T06:12:26;17.50;99.90
5364;DHT22;2705;41.410;2.160;2023-05-03T06:14:55;17.50;99.90
5364;DHT22;2705;41.410;2.160;2023-05-03T06:17:34;17.60;99.90
5364;DHT22;2705;41.410;2.160;2023-05-03T06:20:05;17.70;99.90
5364;DHT22;2705;41.410;2.160;2023-05-03T06:22:39;17.80;99.90
5364;DHT22;2705;41.410;2.160;2023-05-03T06:25:10;17.90;99.90
5364;DHT22;2705;41.410;2.160;2023-05-03T06:27:47;17.90;99.90
5364;DHT22;2705;41.410;2.160;2023-05-03T06:30:19;18.00;99.90
5364;DHT22;2705;41.410;2.160;2023-05-03T06:32:50;18.30;99.90
5364;DHT22;2705;41.410;2.160;2023-05-03T06:35:20;18.40;99.90
5364;DHT22;2705;41.410;2.160;2023-05-03T06:37:49;18.30;99.90
5364;DHT22;2705;41.410;2.160;2023-05-03T06:40:19;18.20;99.90
5364;DHT22;2705;41.410;2.160;2023-05-03T06:42:52;18.10;99.90
5364;DHT22;2705;41.410;2.160;2023-05-03T06:45:32;18.30;99.90
5364;DHT22;2705;41.410;2.160;2023-05-03T06:48:01;18.30;99.90
5364;DHT22;2705;41.410;2.160;2023-05-03T06:50:31;18.30;99.90
5364;DHT22;2705;41.410;2.160;2023-05-03T06:53:00;18.50;99.90
5364;DHT22;2705;41.410;2.160;2023-05-03T06:55:29;18.70;99.90
5364;DHT22;2705;41.410;2.160;2023-05-03T06:58:01;18.70;99.90
5364;DHT22;2705;41.410;2.160;2023-05-03T07:00:31;18.80;99.90
5364;DHT22;2705;41.410;2.160;2023-05-03T07:03:00;18.80;99.90
5364;DHT22;2705;41.410;2.160;2023-05-03T07:05:31;19.00;99.90
5364;DHT22;2705;41.410;2.160;2023-05-03T07:08:00;18.90;99.90
5364;DHT22;2705;41.410;2.160;2023-05-03T07:10:30;18.90;99.90
5364;DHT22;2705;41.410;2.160;2023-05-03T07:12:59;18.80;99.90
5364;DHT22;2705;41.410;2.160;2023-05-03T07:15:30;18.80;99.90
5364;DHT22;2705;41.410;2.160;2023-05-03T07:17:59;19.00;99.90
5364;DHT22;2705;41.410;2.160;2023-05-03T07:20:28;19.20;99.90
5364;DHT22;2705;41.410;2.160;2023-05-03T07:22:57;19.30;99.90
5364;DHT22;2705;41.410;2.160;2023-05-03T07:25:28;19.50;99.90
5364;DHT22;2705;41.410;2.160;2023-05-03T07:27:58;19.40;99.90
5364;DHT22;2705;41.410;2.160;2023-05-03T07:30:29;19.60;99.90
5364;DHT22;2705;41.410;2.160;2023-05-03T07:32:58;19.60;99.90
5364;DHT22;2705;41.410;2.160;2023-05-03T07:35:28;19.70;99.90
5364;DHT22;2705;41.410;2.160;2023-05-03T07:37:57;19.70;99.90
5364;DHT22;2705;41.410;2.160;2023-05-03T07:40:26;19.90;99.90
5364;DHT22;2705;41.410;2.160;2023-05-03T07:42:59;19.90;99.90
5364;DHT22;2705;41.410;2.160;2023-05-03T07:45:30;19.90;99.90
5364;DHT22;2705;41.410;2.160;2023-05-03T07:47:59;20.10;99.90
5364;DHT22;2705;41.410;2.160;2023-05-03T07:50:29;20.20;99.90
5364;DHT22;2705;41.410;2.160;2023-05-03T07:52:58;20.20;99.90
5364;DHT22;2705;41.410;2.160;2023-05-03T07:55:28;20.20;99.90
5364;DHT22;2705;41.410;2.160;2023-05-03T07:57:59;20.50;99.90
5364;DHT22;2705;41.410;2.160;2023-05-03T08:00:30;20.50;99.90
5364;DHT22;2705;41.410;2.160;2023-05-03T08:02:59;20.40;99.90
5364;DHT22;2705;41.410;2.160;2023-05-03T08:05:31;20.60;99.90
5364;DHT22;2705;41.410;2.160;2023-05-03T08:08:02;20.40;99.90
5364;DHT22;2705;41.410;2.160;2023-05-03T08:10:32;20.40;99.90
5364;DHT22;2705;41.410;2.160;2023-05-03T08:13:04;20.70;99.90
5364;DHT22;2705;41.410;2.160;2023-05-03T08:15:35;20.80;99.90
5364;DHT22;2705;41.410;2.160;2023-05-03T08:18:04;20.80;99.90
5364;DHT22;2705;41.410;2.160;2023-05-03T08:20:33;21.00;99.90
5364;DHT22;2705;41.410;2.160;2023-05-03T08:23:03;21.20;99.90
5364;DHT22;2705;41.410;2.160;2023-05-03T08:25:32;21.10;99.90
5364;DHT22;2705;41.410;2.160;2023-05-03T08:28:04;21.20;99.90
5364;DHT22;2705;41.410;2.160;2023-05-03T08:30:36;21.30;99.90
5364;DHT22;2705;41.410;2.160;2023-05-03T08:33:05;21.30;99.90
5364;DHT22;2705;41.410;2.160;2023-05-03T08:35:36;21.30;99.90
5364;DHT22;2705;41.410;2.160;2023-05-03T08:38:06;21.50;99.90
5364;DHT22;2705;41.410;2.160;2023-05-03T08:40:36;21.70;99.90
5364;DHT22;2705;41.410;2.160;2023-05-03T08:43:07;21.60;99.90
5364;DHT22;2705;41.410;2.160;2023-05-03T08:45:38;21.80;99.90
5364;DHT22;2705;41.410;2.160;2023-05-03T08:48:08;21.70;99.90
5364;DHT22;2705;41.410;2.160;2023-05-03T08:50:37;21.80;99.90
5364;DHT22;2705;41.410;2.160;2023-05-03T08:53:09;21.80;99.90
5364;DHT22;2705;41.410;2.160;2023-05-03T08:55:38;21.90;99.90
5364;DHT22;2705;41.410;2.160;2023-05-03T08:58:08;22.00;99.90
5364;DHT22;2705;41.410;2.160;2023-05-03T09:00:41;22.10;99.90
5364;DHT22;2705;41.410;2.160;2023-05-03T09:03:12;22.40;99.90
5364;DHT22;2705;41.410;2.160;2023-05-03T09:05:41;22.30;99.90
5364;DHT22;2705;41.410;2.160;2023-05-03T09:08:11;22.40;99.90
5364;DHT22;2705;41.410;2.160;2023-05-03T09:10:41;22.60;99.90
5364;DHT22;2705;41.410;2.160;2023-05-03T09:13:10;22.70;99.90
5364;DHT22;2705;41.410;2.160;2023-05-03T09:15:41;23.00;99.90
5364;DHT22;2705;41.410;2.160;2023-05-03T09:18:14;22.80;99.90
5364;DHT22;2705;41.410;2.160;2023-05-03T09:20:46;22.90;99.90
5364;DHT22;2705;41.410;2.160;2023-05-03T09:23:28;23.20;99.90
5364;DHT22;2705;41.410;2.160;2023-05-03T09:25:58;23.10;99.90
5364;DHT22;2705;41.410;2.160;2023-05-03T09:28:27;23.30;99.90
5364;DHT22;2705;41.410;2.160;2023-05-03T09:31:06;23.30;99.90
5364;DHT22;2705;41.410;2.160;2023-05-03T09:33:39;23.50;99.90
5364;DHT22;2705;41.410;2.160;2023-05-03T09:36:08;23.60;99.90
5364;DHT22;2705;41.410;2.160;2023-05-03T09:38:38;23.80;99.90
5364;DHT22;2705;41.410;2.160;2023-05-03T09:41:07;24.00;99.90
5364;DHT22;2705;41.410;2.160;2023-05-03T09:43:47;24.30;99.90
5364;DHT22;2705;41.410;2.160;2023-05-03T09:46:19;23.90;99.90
5364;DHT22;2705;41.410;2.160;2023-05-03T09:48:48;24.00;99.90
5364;DHT22;2705;41.410;2.160;2023-05-03T09:51:21;23.70;99.90
5364;DHT22;2705;41.410;2.160;2023-05-03T09:53:50;23.70;99.90
5364;DHT22;2705;41.410;2.160;2023-05-03T09:56:20;23.80;99.90
5364;DHT22;2705;41.410;2.160;2023-05-03T09:58:53;24.10;99.90
5364;DHT22;2705;41.410;2.160;2023-05-03T10:01:24;23.80;99.90
5364;DHT22;2705;41.410;2.160;2023-05-03T10:03:55;24.20;99.90
5364;DHT22;2705;41.410;2.160;2023-05-03T10:06:30;24.30;99.90
5364;DHT22;2705;41.410;2.160;2023-05-03T10:09:04;24.40;99.90
5364;DHT22;2705;41.410;2.160;2023-05-03T10:11:35;24.50;99.90
5364;DHT22;2705;41.410;2.160;2023-05-03T10:14:04;24.30;99.90
5364;DHT22;2705;41.410;2.160;2023-05-03T10:16:38;24.70;99.90
5364;DHT22;2705;41.410;2.160;2023-05-03T10:19:16;24.60;99.90
5364;DHT22;2705;41.410;2.160;2023-05-03T10:21:54;24.20;99.90
5364;DHT22;2705;41.410;2.160;2023-05-03T10:24:24;24.40;99.90
5364;DHT22;2705;41.410;2.160;2023-05-03T10:26:54;24.60;99.90
5364;DHT22;2705;41.410;2.160;2023-05-03T10:29:46;24.70;99.90
5364;DHT22;2705;41.410;2.160;2023-05-03T10:32:31;24.60;99.90
5364;DHT22;2705;41.410;2.160;2023-05-03T10:35:02;24.50;99.90
5364;DHT22;2705;41.410;2.160;2023-05-03T10:37:33;24.60;99.90
5364;DHT22;2705;41.410;2.160;2023-05-03T10:40:13;24.40;99.90
5364;DHT22;2705;41.410;2.160;2023-05-03T10:42:44;24.40;99.90
5364;DHT22;2705;41.410;2.160;2023-05-03T10:45:22;24.30;99.90
5364;DHT22;2705;41.410;2.160;2023-05-03T10:48:16;24.60;99.90
5364;DHT22;2705;41.410;2.160;2023-05-03T10:50:47;24.80;99.90
5364;DHT22;2705;41.410;2.160;2023-05-03T10:53:36;24.80;99.90
5364;DHT22;2705;41.410;2.160;2023-05-03T10:56:07;25.10;99.90
5364;DHT22;2705;41.410;2.160;2023-05-03T10:58:41;25.20;99.90
5364;DHT22;2705;41.410;2.160;2023-05-03T11:01:12;25.20;99.90
5364;DHT22;2705;41.410;2.160;2023-05-03T11:03:51;25.10;99.90
5364;DHT22;2705;41.410;2.160;2023-05-03T11:06:28;25.10;99.90
5364;DHT22;2705;41.410;2.160;2023-05-03T11:08:58;24.90;99.90
5364;DHT22;2705;41.410;2.160;2023-05-03T11:11:27;25.10;99.90
5364;DHT22;2705;41.410;2.160;2023-05-03T11:13:57;25.20;99.90
5364;DHT22;2705;41.410;2.160;2023-05-03T11:16:26;25.50;99.90
5364;DHT22;2705;41.410;2.160;2023-05-03T11:18:58;25.60;99.90
5364;DHT22;2705;41.410;2.160;2023-05-03T11:21:27;25.70;99.90
5364;DHT22;2705;41.410;2.160;2023-05-03T11:23:57;25.90;99.90
5364;DHT22;2705;41.410;2.160;2023-05-03T11:26:27;25.90;99.90
5364;DHT22;2705;41.410;2.160;2023-05-03T11:28:55;25.50;99.90
5364;DHT22;2705;41.410;2.160;2023-05-03T11:31:25;25.20;99.90
5364;DHT22;2705;41.410;2.160;2023-05-03T11:33:54;25.10;99.90
5364;DHT22;2705;41.410;2.160;2023-05-03T11:36:25;25.20;99.90
5364;DHT22;2705;41.410;2.160;2023-05-03T11:38:56;24.80;99.90
5364;DHT22;2705;41.410;2.160;2023-05-03T11:41:25;25.30;99.90
5364;DHT22;2705;41.410;2.160;2023-05-03T11:43:54;25.40;99.90
5364;DHT22;2705;41.410;2.160;2023-05-03T11:46:41;25.60;99.90
5364;DHT22;2705;41.410;2.160;2023-05-03T11:49:16;24.80;99.90
5364;DHT22;2705;41.410;2.160;2023-05-03T11:51:48;24.70;99.90
5364;DHT22;2705;41.410;2.160;2023-05-03T11:54:21;25.00;99.90
5364;DHT22;2705;41.410;2.160;2023-05-03T11:56:57;25.30;99.90
5364;DHT22;2705;41.410;2.160;2023-05-03T11:59:36;25.40;99.90
5364;DHT22;2705;41.410;2.160;2023-05-03T12:02:08;25.50;99.90
5364;DHT22;2705;41.410;2.160;2023-05-03T12:04:39;25.20;99.90
5364;DHT22;2705;41.410;2.160;2023-05-03T12:07:12;25.40;99.90
5364;DHT22;2705;41.410;2.160;2023-05-03T12:09:46;25.20;99.30
5364;DHT22;2705;41.410;2.160;2023-05-03T12:12:35;25.20;99.50
5364;DHT22;2705;41.410;2.160;2023-05-03T12:15:09;25.20;99.30
5364;DHT22;2705;41.410;2.160;2023-05-03T12:17:42;25.00;98.60
5364;DHT22;2705;41.410;2.160;2023-05-03T12:20:17;25.00;98.90
5364;DHT22;2705;41.410;2.160;2023-05-03T12:22:52;25.00;97.30
5364;DHT22;2705;41.410;2.160;2023-05-03T12:25:25;25.00;96.90
5364;DHT22;2705;41.410;2.160;2023-05-03T12:28:01;25.00;97.70
5364;DHT22;2705;41.410;2.160;2023-05-03T12:30:38;25.20;98.60
5364;DHT22;2705;41.410;2.160;2023-05-03T12:33:08;25.40;99.90
5364;DHT22;2705;41.410;2.160;2023-05-03T12:35:38;25.00;99.90
5364;DHT22;2705;41.410;2.160;2023-05-03T12:38:09;25.40;99.90
5364;DHT22;2705;41.410;2.160;2023-05-03T12:40:43;25.50;99.90
5364;DHT22;2705;41.410;2.160;2023-05-03T12:43:13;25.60;99.90
5364;DHT22;2705;41.410;2.160;2023-05-03T12:45:43;25.40;99.90
5364;DHT22;2705;41.410;2.160;2023-05-03T12:48:24;25.00;99.90
5364;DHT22;2705;41.410;2.160;2023-05-03T12:50:54;24.70;99.90
5364;DHT22;2705;41.410;2.160;2023-05-03T12:53:45;24.40;99.90
5364;DHT22;2705;41.410;2.160;2023-05-03T12:56:21;24.60;99.90
5364;DHT22;2705;41.410;2.160;2023-05-03T12:58:52;24.60;99.90
5364;DHT22;2705;41.410;2.160;2023-05-03T13:01:41;24.60;99.90
5364;DHT22;2705;41.410;2.160;2023-05-03T13:04:14;24.80;99.90
5364;DHT22;2705;41.410;2.160;2023-05-03T13:07:03;24.70;99.90
5364;DHT22;2705;41.410;2.160;2023-05-03T13:09:43;24.70;99.90
5364;DHT22;2705;41.410;2.160;2023-05-03T13:12:32;25.00;99.90
5364;DHT22;2705;41.410;2.160;2023-05-03T13:15:03;25.00;99.90
5364;DHT22;2705;41.410;2.160;2023-05-03T13:17:33;24.90;99.90
5364;DHT22;2705;41.410;2.160;2023-05-03T13:20:03;24.80;99.90
5364;DHT22;2705;41.410;2.160;2023-05-03T13:22:34;24.80;99.90
5364;DHT22;2705;41.410;2.160;2023-05-03T13:25:05;24.60;99.90
5364;DHT22;2705;41.410;2.160;2023-05-03T13:27:34;25.10;99.90
5364;DHT22;2705;41.410;2.160;2023-05-03T13:30:04;25.30;99.90
5364;DHT22;2705;41.410;2.160;2023-05-03T13:32:34;25.40;99.90
5364;DHT22;2705;41.410;2.160;2023-05-03T13:35:03;25.20;99.90
5364;DHT22;2705;41.410;2.160;2023-05-03T13:37:33;25.40;99.90
5364;DHT22;2705;41.410;2.160;2023-05-03T13:40:04;25.40;99.90
5364;DHT22;2705;41.410;2.160;2023-05-03T13:42:33;25.30;99.90
5364;DHT22;2705;41.410;2.160;2023-05-03T13:45:03;25.00;99.90
5364;DHT22;2705;41.410;2.160;2023-05-03T13:47:33;24.50;99.90
5364;DHT22;2705;41.410;2.160;2023-05-03T13:50:22;24.70;99.90
5364;DHT22;2705;41.410;2.160;2023-05-03T13:52:51;25.10;99.90
5364;DHT22;2705;41.410;2.160;2023-05-03T13:55:23;25.70;99.90
5364;DHT22;2705;41.410;2.160;2023-05-03T13:57:54;25.50;99.90
5364;DHT22;2705;41.410;2.160;2023-05-03T14:00:23;25.50;99.90
5364;DHT22;2705;41.410;2.160;2023-05-03T14:02:52;24.90;99.90
5364;DHT22;2705;41.410;2.160;2023-05-03T14:05:22;25.10;99.90
5364;DHT22;2705;41.410;2.160;2023-05-03T14:07:51;25.50;99.90
5364;DHT22;2705;41.410;2.160;2023-05-03T14:10:20;25.80;99.90
5364;DHT22;2705;41.410;2.160;2023-05-03T14:12:51;25.10;99.90
5364;DHT22;2705;41.410;2.160;2023-05-03T14:15:20;25.40;99.90
5364;DHT22;2705;41.410;2.160;2023-05-03T14:17:49;25.70;99.90
5364;DHT22;2705;41.410;2.160;2023-05-03T14:20:22;25.00;99.90
5364;DHT22;2705;41.410;2.160;2023-05-03T14:22:51;25.60;99.90
5364;DHT22;2705;41.410;2.160;2023-05-03T14:25:20;25.60;99.90
5364;DHT22;2705;41.410;2.160;2023-05-03T14:27:51;26.00;99.90
5364;DHT22;2705;41.410;2.160;2023-05-03T14:30:21;26.00;99.90
5364;DHT22;2705;41.410;2.160;2023-05-03T14:32:50;26.00;99.90
5364;DHT22;2705;41.410;2.160;2023-05-03T14:35:19;26.40;99.90
5364;DHT22;2705;41.410;2.160;2023-05-03T14:37:49;26.40;99.90
5364;DHT22;2705;41.410;2.160;2023-05-03T14:40:19;26.70;99.90
5364;DHT22;2705;41.410;2.160;2023-05-03T14:42:48;26.40;99.90
5364;DHT22;2705;41.410;2.160;2023-05-03T14:45:19;26.50;99.90
5364;DHT22;2705;41.410;2.160;2023-05-03T14:47:48;25.50;99.90
5364;DHT22;2705;41.410;2.160;2023-05-03T14:50:18;25.40;99.90
5364;DHT22;2705;41.410;2.160;2023-05-03T14:52:47;25.90;99.90
5364;DHT22;2705;41.410;2.160;2023-05-03T14:55:16;26.20;99.90
5364;DHT22;2705;41.410;2.160;2023-05-03T14:57:45;26.30;99.90
5364;DHT22;2705;41.410;2.160;2023-05-03T15:00:15;25.70;99.90
5364;DHT22;2705;41.410;2.160;2023-05-03T15:02:46;26.10;99.90
5364;DHT22;2705;41.410;2.160;2023-05-03T15:05:20;26.00;99.90
5364;DHT22;2705;41.410;2.160;2023-05-03T15:07:49;25.70;99.90
5364;DHT22;2705;41.410;2.160;2023-05-03T15:10:19;25.20;99.90
5364;DHT22;2705;41.410;2.160;2023-05-03T15:12:49;25.10;99.90
5364;DHT22;2705;41.410;2.160;2023-05-03T15:15:18;24.40;99.90
5364;DHT22;2705;41.410;2.160;2023-05-03T15:17:48;23.80;99.90
5364;DHT22;2705;41.410;2.160;2023-05-03T15:20:17;23.80;99.90
5364;DHT22;2705;41.410;2.160;2023-05-03T15:22:47;23.80;99.90
5364;DHT22;2705;41.410;2.160;2023-05-03T15:25:16;23.60;99.90
5364;DHT22;2705;41.410;2.160;2023-05-03T15:27:45;23.80;99.90
5364;DHT22;2705;41.410;2.160;2023-05-03T15:30:15;23.70;99.90
5364;DHT22;2705;41.410;2.160;2023-05-03T15:32:44;23.70;99.90
5364;DHT22;2705;41.410;2.160;2023-05-03T15:35:15;23.80;99.90
5364;DHT22;2705;41.410;2.160;2023-05-03T15:37:44;23.60;99.90
5364;DHT22;2705;41.410;2.160;2023-05-03T15:40:13;23.60;99.90
5364;DHT22;2705;41.410;2.160;2023-05-03T15:42:45;23.70;99.90
5364;DHT22;2705;41.410;2.160;2023-05-03T15:45:14;23.70;99.90
5364;DHT22;2705;41.410;2.160;2023-05-03T15:47:44;23.40;99.90
5364;DHT22;2705;41.410;2.160;2023-05-03T15:50:15;23.30;99.90
5364;DHT22;2705;41.410;2.160;2023-05-03T15:52:44;23.20;99.90
5364;DHT22;2705;41.410;2.160;2023-05-03T15:55:13;22.80;99.90
5364;DHT22;2705;41.410;2.160;2023-05-03T15:57:44;22.90;99.90
5364;DHT22;2705;41.410;2.160;2023-05-03T16:00:15;23.00;99.90
5364;DHT22;2705;41.410;2.160;2023-05-03T16:02:44;23.00;99.90
5364;DHT22;2705;41.410;2.160;2023-05-03T16:05:15;23.10;99.90
5364;DHT22;2705;41.410;2.160;2023-05-03T16:07:44;22.80;99.90
5364;DHT22;2705;41.410;2.160;2023-05-03T16:10:13;22.90;99.90
5364;DHT22;2705;41.410;2.160;2023-05-03T16:12:44;22.90;99.90
5364;DHT22;2705;41.410;2.160;2023-05-03T16:15:13;22.80;99.90
5364;DHT22;2705;41.410;2.160;2023-05-03T16:17:42;22.80;99.90
5364;DHT22;2705;41.410;2.160;2023-05-03T16:20:12;23.00;99.90
5364;DHT22;2705;41.410;2.160;2023-05-03T16:22:43;23.00;99.90
5364;DHT22;2705;41.410;2.160;2023-05-03T16:25:14;22.90;99.90
5364;DHT22;2705;41.410;2.160;2023-05-03T16:27:43;22.90;99.90